createdAt,value
2022-11-24T04:41:24.098Z,100.00
2022-11-24T04:44:27.557Z,100.00
2022-11-24T04:47:30.049Z,100.00
2022-11-24T04:50:37.133Z,100.00
2022-11-24T04:53:39.624Z,100.00
2022-11-24T04:56:43.872Z,100.00
2022-11-24T04:59:46.467Z,100.00
2022-11-24T05:02:49.251Z,100.00
2022-11-24T05:05:51.695Z,100.00
2022-11-24T05:08:54.528Z,100.00
2022-11-24T05:11:57.196Z,100.00
2022-11-24T05:15:01.533Z,100.00
2022-11-24T05:18:09.397Z,100.00
2022-11-24T05:21:12.572Z,100.00
2022-11-24T05:24:15.069Z,100.00
2022-11-24T05:27:17.850Z,100.00
2022-11-24T05:30:20.378Z,100.00
2022-11-24T05:33:23.149Z,100.00
2022-11-24T05:36:44.890Z,100.00
2022-11-24T05:39:47.854Z,100.00
2022-11-24T05:42:50.334Z,100.00
2022-11-24T05:45:53.304Z,100.00
2022-11-24T05:48:55.892Z,100.00
2022-11-24T05:51:58.752Z,100.00
2022-11-24T05:55:01.240Z,100.00
2022-11-24T05:58:06.424Z,100.00
2022-11-24T06:01:09.005Z,100.00
2022-11-24T06:04:11.774Z,100.00
2022-11-24T06:07:14.821Z,100.00
2022-11-24T06:10:19.413Z,100.00
2022-11-24T06:13:21.964Z,100.00
2022-11-24T06:16:24.851Z,100.00
2022-11-24T06:19:27.597Z,100.00
2022-11-24T06:22:30.801Z,100.00
2022-11-24T06:25:33.160Z,100.00
2022-11-24T06:28:36.268Z,100.00
2022-11-24T06:31:38.845Z,100.00
2022-11-24T06:34:41.757Z,100.00
2022-11-24T06:37:45.777Z,100.00
2022-11-24T06:40:48.690Z,100.00
2022-11-24T06:43:51.158Z,100.00
2022-11-24T06:46:54.002Z,100.00
2022-11-24T06:49:56.695Z,100.00
2022-11-24T06:52:59.391Z,100.00
2022-11-24T06:56:02.603Z,100.00
2022-11-24T06:59:05.536Z,100.00
2022-11-24T07:02:10.230Z,100.00
2022-11-24T07:05:16.071Z,100.00
2022-11-24T07:08:18.679Z,100.00
2022-11-24T07:11:23.661Z,100.00
2022-11-24T07:14:27.011Z,100.00
2022-11-24T07:17:29.895Z,100.00
2022-11-24T07:20:32.611Z,100.00
2022-11-24T07:23:35.511Z,100.00
2022-11-24T07:26:38.068Z,100.00
2022-11-24T07:29:40.862Z,100.00
2022-11-24T07:32:43.357Z,100.00
2022-11-24T07:35:46.187Z,100.00
2022-11-24T07:38:49.083Z,100.00
2022-11-24T07:41:51.842Z,100.00
2022-11-24T07:44:54.382Z,100.00
2022-11-24T07:47:57.150Z,100.00
2022-11-24T07:51:00.574Z,100.00
2022-11-24T07:54:03.666Z,100.00
2022-11-24T07:57:06.144Z,100.00
2022-11-24T08:00:12.936Z,100.00
2022-11-24T08:03:16.027Z,100.00
2022-11-24T08:06:31.712Z,100.00
2022-11-24T08:09:38.969Z,100.00
2022-11-24T08:12:43.825Z,100.00
2022-11-24T08:15:46.778Z,100.00
2022-11-24T08:18:51.528Z,100.00
2022-11-24T08:21:54.518Z,100.00
2022-11-24T08:24:57.029Z,100.00
2022-11-24T08:28:01.213Z,100.00
2022-11-24T08:31:10.098Z,100.00
2022-11-24T08:34:14.754Z,100.00
2022-11-24T08:37:17.373Z,100.00
2022-11-24T08:40:20.655Z,100.00
2022-11-24T08:43:23.147Z,100.00
2022-11-24T08:46:26.007Z,100.00
2022-11-24T08:49:28.695Z,100.00
2022-11-24T08:52:31.874Z,100.00
2022-11-24T08:55:34.414Z,100.00
2022-11-24T08:58:38.014Z,100.00
2022-11-24T09:01:41.865Z,100.00
2022-11-24T09:04:45.796Z,100.00
2022-11-24T09:07:48.362Z,100.00
2022-11-24T09:10:51.579Z,100.00
2022-11-24T09:13:55.404Z,100.00
2022-11-24T09:16:58.249Z,100.00
2022-11-24T09:20:00.812Z,100.00
2022-11-24T09:23:03.826Z,100.00
2022-11-24T09:26:12.438Z,100.00
2022-11-24T09:29:15.394Z,100.00
2022-11-24T09:32:17.961Z,100.00
2022-11-24T09:35:21.208Z,100.00
2022-11-24T09:38:24.276Z,100.00
2022-11-24T09:41:38.479Z,100.00
2022-11-24T09:45:04.934Z,100.00
2022-11-24T09:48:32.090Z,100.00
2022-11-24T09:51:37.160Z,100.00
2022-11-24T09:54:52.741Z,100.00
2022-11-24T09:58:09.642Z,96.16
2022-11-24T10:01:18.140Z,97.15
2022-11-24T10:04:26.124Z,100.00
2022-11-24T10:07:42.666Z,100.00
2022-11-24T10:11:00.985Z,100.00
2022-11-24T10:14:26.307Z,100.00
2022-11-24T10:18:09.303Z,100.00
2022-11-24T10:21:35.446Z,100.00
2022-11-24T10:25:00.011Z,100.00
2022-11-24T10:28:05.094Z,100.00
2022-11-24T10:31:25.037Z,100.00
2022-11-24T10:34:34.508Z,100.00
2022-11-24T10:37:43.702Z,100.00
2022-11-24T10:41:07.856Z,100.00
2022-11-24T10:44:15.060Z,100.00
2022-11-24T10:47:22.888Z,100.00
2022-11-24T10:50:28.231Z,100.00
2022-11-24T10:53:31.288Z,100.00
2022-11-24T10:56:41.729Z,100.00
2022-11-24T10:59:44.381Z,100.00
2022-11-24T11:03:09.881Z,100.00
2022-11-24T11:06:15.086Z,100.00
2022-11-24T11:09:23.283Z,100.00
2022-11-24T11:12:45.707Z,100.00
2022-11-24T11:15:48.909Z,100.00
2022-11-24T11:18:52.271Z,100.00
2022-11-24T11:22:15.949Z,100.00
2022-11-24T11:25:34.025Z,100.00
2022-11-24T11:28:36.828Z,99.08
2022-11-24T11:31:41.160Z,99.46
2022-11-24T11:34:44.603Z,100.00
2022-11-24T11:37:48.892Z,100.00
2022-11-24T11:40:52.254Z,96.49
2022-11-24T11:44:10.848Z,99.24
2022-11-24T11:47:29.302Z,96.18
2022-11-24T11:51:06.667Z,95.59
2022-11-24T11:54:16.834Z,93.91
2022-11-24T11:57:31.163Z,93.75
2022-11-24T12:00:39.799Z,93.89
2022-11-24T12:04:01.421Z,89.92
2022-11-24T12:07:32.183Z,91.58
2022-11-24T12:10:42.441Z,91.56
2022-11-24T12:14:11.226Z,91.14
2022-11-24T12:17:56.729Z,89.00
2022-11-24T12:21:26.145Z,90.44
2022-11-24T12:24:42.844Z,91.32
2022-11-24T12:27:56.882Z,94.50
2022-11-24T12:31:02.494Z,98.01
2022-11-24T12:34:14.717Z,100.00
2022-11-24T12:37:27.301Z,98.25
2022-11-24T12:41:25.434Z,100.00
2022-11-24T12:44:44.224Z,100.00
2022-11-24T12:47:46.785Z,100.00
2022-11-24T12:50:53.231Z,100.00
2022-11-24T12:53:58.240Z,100.00
2022-11-24T12:57:10.895Z,100.00
2022-11-24T13:00:21.816Z,100.00
2022-11-24T13:03:32.394Z,100.00
2022-11-24T13:06:37.863Z,100.00
2022-11-24T13:10:19.004Z,100.00
2022-11-24T13:13:26.296Z,100.00
2022-11-24T13:16:44.409Z,100.00
2022-11-24T13:19:51.850Z,100.00
2022-11-24T13:23:03.506Z,100.00
2022-11-24T13:26:43.641Z,100.00
2022-11-24T13:29:48.518Z,100.00
2022-11-24T13:33:01.038Z,100.00
2022-11-24T13:36:04.361Z,100.00
2022-11-24T13:39:17.916Z,100.00
2022-11-24T13:42:42.365Z,100.00
2022-11-24T13:45:46.921Z,100.00
2022-11-24T13:48:49.677Z,100.00
2022-11-24T13:52:36.265Z,100.00
2022-11-24T13:55:41.060Z,100.00
2022-11-24T13:58:55.020Z,100.00
2022-11-24T14:01:59.003Z,100.00
2022-11-24T14:05:01.913Z,100.00
2022-11-24T14:08:07.656Z,100.00
2022-11-24T14:11:17.004Z,100.00
2022-11-24T14:14:21.206Z,100.00
2022-11-24T14:17:28.497Z,100.00
2022-11-24T14:20:31.246Z,100.00
2022-11-24T14:23:34.171Z,100.00
2022-11-24T14:26:39.342Z,100.00
2022-11-24T14:29:57.387Z,100.00
2022-11-24T14:33:02.899Z,100.00
2022-11-24T14:36:17.598Z,100.00
2022-11-24T14:39:25.520Z,100.00
2022-11-24T14:42:28.684Z,100.00
2022-11-24T14:45:32.046Z,100.00
2022-11-24T14:48:50.424Z,100.00
2022-11-24T14:52:02.408Z,100.00
2022-11-24T14:55:21.783Z,100.00
2022-11-24T14:58:40.472Z,100.00
2022-11-24T15:01:45.037Z,100.00
2022-11-24T15:05:03.232Z,100.00
2022-11-24T15:08:13.460Z,100.00
2022-11-24T15:11:16.235Z,100.00
2022-11-24T15:14:44.234Z,100.00
2022-11-24T15:17:58.268Z,100.00
2022-11-24T15:21:01.273Z,100.00
2022-11-24T15:24:18.379Z,100.00
2022-11-24T15:27:21.094Z,100.00
2022-11-24T15:30:24.001Z,100.00
2022-11-24T15:33:27.164Z,100.00
2022-11-24T15:36:29.636Z,100.00
2022-11-24T15:39:32.575Z,100.00
2022-11-24T15:42:35.184Z,100.00
2022-11-24T15:45:37.905Z,100.00
2022-11-24T15:48:41.894Z,100.00
2022-11-24T15:51:45.678Z,100.00
2022-11-24T15:54:51.542Z,100.00
2022-11-24T15:57:54.316Z,100.00
2022-11-24T16:00:57.076Z,100.00
2022-11-24T16:04:00.741Z,100.00
2022-11-24T16:07:06.247Z,100.00
2022-11-24T16:10:21.716Z,100.00
2022-11-24T16:13:24.286Z,100.00
2022-11-24T16:16:29.115Z,100.00
2022-11-24T16:19:31.695Z,100.00
2022-11-24T16:22:34.530Z,100.00
2022-11-24T16:25:37.083Z,100.00
2022-11-24T16:28:40.657Z,100.00
2022-11-24T16:31:43.557Z,100.00
2022-11-24T16:34:46.301Z,100.00
2022-11-24T16:37:48.930Z,100.00
2022-11-24T16:40:53.008Z,100.00
2022-11-24T16:43:55.616Z,100.00
2022-11-24T16:46:58.415Z,100.00
2022-11-24T16:50:01.486Z,100.00
2022-11-24T16:53:04.333Z,100.00
2022-11-24T16:56:08.190Z,100.00
2022-11-24T16:59:11.899Z,100.00
2022-11-24T17:02:14.528Z,100.00
2022-11-24T17:05:17.271Z,100.00
2022-11-24T17:08:19.796Z,100.00
2022-11-24T17:11:25.036Z,100.00
2022-11-24T17:14:27.613Z,100.00
2022-11-24T17:17:30.489Z,100.00
